sensor_id;sensor_type;location;lat;lon;timestamp;pressure;altitude;pressure_sealevel;temperature;humidity
74921;BME280;63483;47.384;8.860;2023-11-22T00:00:16;94716.72;;;4.33;54.87
74921;BME280;63483;47.384;8.860;2023-11-22T00:02:41;94712.06;;;4.46;54.85
74921;BME280;63483;47.384;8.860;2023-11-22T00:05:07;94711.13;;;4.37;54.96
74921;BME280;63483;47.384;8.860;2023-11-22T00:07:32;94715.66;;;4.25;55.13
74921;BME280;63483;47.384;8.860;2023-11-22T00:09:58;94713.47;;;4.01;55.60
74921;BME280;63483;47.384;8.860;2023-11-22T00:12:24;94715.94;;;4.13;55.64
74921;BME280;63483;47.384;8.860;2023-11-22T00:14:50;94718.13;;;3.88;56.39
74921;BME280;63483;47.384;8.860;2023-11-22T00:17:15;94722.47;;;4.07;55.47
74921;BME280;63483;47.384;8.860;2023-11-22T00:19:43;94725.09;;;3.97;55.84
74921;BME280;63483;47.384;8.860;2023-11-22T00:22:09;94723.28;;;4.17;55.47
74921;BME280;63483;47.384;8.860;2023-11-22T00:24:41;94734.34;;;4.19;55.32
74921;BME280;63483;47.384;8.860;2023-11-22T00:27:07;94732.19;;;4.15;55.51
74921;BME280;63483;47.384;8.860;2023-11-22T00:29:33;94721.53;;;4.18;55.72
74921;BME280;63483;47.384;8.860;2023-11-22T00:31:58;94726.84;;;4.06;55.95
74921;BME280;63483;47.384;8.860;2023-11-22T00:34:24;94728.75;;;4.24;55.53
74921;BME280;63483;47.384;8.860;2023-11-22T00:36:49;94728.75;;;4.24;55.28
74921;BME280;63483;47.384;8.860;2023-11-22T00:39:16;94728.47;;;4.27;55.61
74921;BME280;63483;47.384;8.860;2023-11-22T00:41:42;94734.31;;;4.29;55.17
74921;BME280;63483;47.384;8.860;2023-11-22T00:44:07;94737.09;;;4.18;55.83
74921;BME280;63483;47.384;8.860;2023-11-22T00:46:32;94735.03;;;4.31;55.12
74921;BME280;63483;47.384;8.860;2023-11-22T00:48:58;94735.44;;;4.17;55.72
74921;BME280;63483;47.384;8.860;2023-11-22T00:51:23;94735.31;;;4.28;55.58
74921;BME280;63483;47.384;8.860;2023-11-22T00:53:49;94732.53;;;4.39;54.67
74921;BME280;63483;47.384;8.860;2023-11-22T00:56:15;94733.25;;;4.41;54.98
74921;BME280;63483;47.384;8.860;2023-11-22T00:58:40;94735.56;;;4.35;54.69
74921;BME280;63483;47.384;8.860;2023-11-22T01:01:06;94739.94;;;4.24;54.76
74921;BME280;63483;47.384;8.860;2023-11-22T01:03:32;94742.91;;;4.39;54.68
74921;BME280;63483;47.384;8.860;2023-11-22T01:05:57;94751.66;;;4.38;54.65
74921;BME280;63483;47.384;8.860;2023-11-22T01:08:23;94751.53;;;4.40;54.79
74921;BME280;63483;47.384;8.860;2023-11-22T01:10:48;94754.25;;;4.38;55.02
74921;BME280;63483;47.384;8.860;2023-11-22T01:13:14;94748.38;;;4.36;54.82
74921;BME280;63483;47.384;8.860;2023-11-22T01:15:40;94756.31;;;4.35;54.75
74921;BME280;63483;47.384;8.860;2023-11-22T01:18:06;94754.94;;;4.40;54.50
74921;BME280;63483;47.384;8.860;2023-11-22T01:20:32;94752.19;;;4.32;55.02
74921;BME280;63483;47.384;8.860;2023-11-22T01:22:57;94757.25;;;4.43;54.60
74921;BME280;63483;47.384;8.860;2023-11-22T01:25:22;94759.84;;;4.53;54.67
74921;BME280;63483;47.384;8.860;2023-11-22T01:27:48;94762.97;;;4.57;54.18
74921;BME280;63483;47.384;8.860;2023-11-22T01:30:13;94766.63;;;4.64;54.21
74921;BME280;63483;47.384;8.860;2023-11-22T01:32:40;94766.06;;;4.70;54.07
74921;BME280;63483;47.384;8.860;2023-11-22T01:35:05;94767.44;;;4.74;54.20
74921;BME280;63483;47.384;8.860;2023-11-22T01:37:31;94761.00;;;4.78;54.13
74921;BME280;63483;47.384;8.860;2023-11-22T01:39:57;94760.03;;;4.80;53.65
74921;BME280;63483;47.384;8.860;2023-11-22T01:42:23;94760.03;;;4.80;53.96
74921;BME280;63483;47.384;8.860;2023-11-22T01:44:50;94766.56;;;4.84;53.99
74921;BME280;63483;47.384;8.860;2023-11-22T01:47:17;94764.69;;;4.86;53.72
74921;BME280;63483;47.384;8.860;2023-11-22T01:49:42;94762.47;;;4.81;53.93
74921;BME280;63483;47.384;8.860;2023-11-22T01:52:08;94758.94;;;4.82;53.65
74921;BME280;63483;47.384;8.860;2023-11-22T01:54:34;94763.69;;;4.87;53.44
74921;BME280;63483;47.384;8.860;2023-11-22T01:57:00;94757.28;;;4.91;53.67
74921;BME280;63483;47.384;8.860;2023-11-22T01:59:27;94757.28;;;4.91;53.54
74921;BME280;63483;47.384;8.860;2023-11-22T02:01:54;94760.56;;;4.93;53.72
74921;BME280;63483;47.384;8.860;2023-11-22T02:04:20;94764.91;;;4.92;53.82
74921;BME280;63483;47.384;8.860;2023-11-22T02:06:46;94767.94;;;4.88;53.21
74921;BME280;63483;47.384;8.860;2023-11-22T02:09:11;94763.03;;;4.85;53.68
74921;BME280;63483;47.384;8.860;2023-11-22T02:11:41;94768.50;;;4.82;53.33
74921;BME280;63483;47.384;8.860;2023-11-22T02:14:07;94773.22;;;3.80;49.90
74921;BME280;63483;47.384;8.860;2023-11-22T02:16:33;94765.03;;;3.25;50.33
74921;BME280;63483;47.384;8.860;2023-11-22T02:18:59;94767.84;;;3.12;53.33
74921;BME280;63483;47.384;8.860;2023-11-22T02:21:24;94769.25;;;2.64;50.47
74921;BME280;63483;47.384;8.860;2023-11-22T02:23:49;94779.81;;;2.30;50.77
74921;BME280;63483;47.384;8.860;2023-11-22T02:26:15;94776.63;;;2.26;52.03
74921;BME280;63483;47.384;8.860;2023-11-22T02:28:43;94781.41;;;2.10;54.82
74921;BME280;63483;47.384;8.860;2023-11-22T02:31:08;94772.72;;;2.11;51.52
74921;BME280;63483;47.384;8.860;2023-11-22T02:33:34;94779.03;;;2.18;53.19
74921;BME280;63483;47.384;8.860;2023-11-22T02:36:01;94789.59;;;2.47;53.75
74921;BME280;63483;47.384;8.860;2023-11-22T02:38:27;94797.59;;;2.65;54.89
74921;BME280;63483;47.384;8.860;2023-11-22T02:40:53;94789.00;;;2.86;55.35
74921;BME280;63483;47.384;8.860;2023-11-22T02:43:19;94791.09;;;3.02;54.80
74921;BME280;63483;47.384;8.860;2023-11-22T02:45:44;94786.47;;;3.06;51.68
74921;BME280;63483;47.384;8.860;2023-11-22T02:48:10;94795.91;;;3.07;51.68
74921;BME280;63483;47.384;8.860;2023-11-22T02:50:35;94794.84;;;3.19;56.04
74921;BME280;63483;47.384;8.860;2023-11-22T02:53:03;94789.59;;;3.30;51.46
74921;BME280;63483;47.384;8.860;2023-11-22T02:55:28;94792.97;;;3.31;50.85
74921;BME280;63483;47.384;8.860;2023-11-22T02:57:54;94792.22;;;3.40;53.20
74921;BME280;63483;47.384;8.860;2023-11-22T03:00:19;94796.47;;;3.51;55.03
74921;BME280;63483;47.384;8.860;2023-11-22T03:02:46;94794.06;;;3.28;56.60
74921;BME280;63483;47.384;8.860;2023-11-22T03:05:12;94792.84;;;3.63;56.56
74921;BME280;63483;47.384;8.860;2023-11-22T03:07:39;94789.56;;;3.71;56.48
74921;BME280;63483;47.384;8.860;2023-11-22T03:10:06;94796.25;;;3.83;56.10
74921;BME280;63483;47.384;8.860;2023-11-22T03:12:32;94800.91;;;3.80;56.45
74921;BME280;63483;47.384;8.860;2023-11-22T03:14:58;94799.81;;;3.92;56.21
74921;BME280;63483;47.384;8.860;2023-11-22T03:17:26;94798.06;;;4.02;55.86
74921;BME280;63483;47.384;8.860;2023-11-22T03:19:53;94800.25;;;3.97;56.03
74921;BME280;63483;47.384;8.860;2023-11-22T03:22:19;94806.53;;;4.04;55.79
74921;BME280;63483;47.384;8.860;2023-11-22T03:24:44;94809.25;;;4.03;56.00
74921;BME280;63483;47.384;8.860;2023-11-22T03:27:10;94796.72;;;4.18;55.73
74921;BME280;63483;47.384;8.860;2023-11-22T03:29:35;94800.81;;;4.11;55.91
74921;BME280;63483;47.384;8.860;2023-11-22T03:32:00;94803.94;;;4.24;55.53
74921;BME280;63483;47.384;8.860;2023-11-22T03:34:26;94809.25;;;4.13;55.54
74921;BME280;63483;47.384;8.860;2023-11-22T03:36:51;94807.22;;;4.06;55.91
74921;BME280;63483;47.384;8.860;2023-11-22T03:39:17;94813.34;;;4.25;55.60
74921;BME280;63483;47.384;8.860;2023-11-22T03:41:42;94800.53;;;4.33;55.33
74921;BME280;63483;47.384;8.860;2023-11-22T03:44:08;94806.13;;;4.29;55.48
74921;BME280;63483;47.384;8.860;2023-11-22T03:46:35;94809.25;;;4.32;55.01
74921;BME280;63483;47.384;8.860;2023-11-22T03:49:01;94815.81;;;4.36;54.83
74921;BME280;63483;47.384;8.860;2023-11-22T03:51:28;94813.63;;;4.22;55.66
74921;BME280;63483;47.384;8.860;2023-11-22T03:53:53;94815.56;;;4.30;55.20
74921;BME280;63483;47.384;8.860;2023-11-22T03:56:18;94821.25;;;4.33;55.28
74921;BME280;63483;47.384;8.860;2023-11-22T03:58:44;94814.28;;;4.34;55.08
74921;BME280;63483;47.384;8.860;2023-11-22T04:01:09;94815.81;;;4.36;55.46
74921;BME280;63483;47.384;8.860;2023-11-22T04:03:35;94815.53;;;4.39;55.23
74921;BME280;63483;47.384;8.860;2023-11-22T04:06:00;94821.56;;;4.40;54.90
74921;BME280;63483;47.384;8.860;2023-11-22T04:08:25;94823.47;;;4.48;54.96
74921;BME280;63483;47.384;8.860;2023-11-22T04:10:50;94833.00;;;4.37;54.85
74921;BME280;63483;47.384;8.860;2023-11-22T04:13:16;94823.47;;;4.28;54.97
74921;BME280;63483;47.384;8.860;2023-11-22T04:15:41;94832.19;;;4.27;55.31
74921;BME280;63483;47.384;8.860;2023-11-22T04:18:07;94827.69;;;4.29;54.86
74921;BME280;63483;47.384;8.860;2023-11-22T04:20:32;94843.09;;;4.31;54.81
74921;BME280;63483;47.384;8.860;2023-11-22T04:22:58;94851.56;;;4.42;55.01
74921;BME280;63483;47.384;8.860;2023-11-22T04:25:23;94856.75;;;4.23;55.38
74921;BME280;63483;47.384;8.860;2023-11-22T04:27:49;94850.59;;;4.14;55.40
74921;BME280;63483;47.384;8.860;2023-11-22T04:30:14;94855.38;;;4.29;55.06
74921;BME280;63483;47.384;8.860;2023-11-22T04:32:40;94860.56;;;4.09;55.49
74921;BME280;63483;47.384;8.860;2023-11-22T04:35:07;94856.72;;;4.03;55.53
74921;BME280;63483;47.384;8.860;2023-11-22T04:37:32;94858.50;;;4.13;55.32
74921;BME280;63483;47.384;8.860;2023-11-22T04:39:59;94857.41;;;4.05;55.55
74921;BME280;63483;47.384;8.860;2023-11-22T04:42:26;94868.16;;;3.91;55.62
74921;BME280;63483;47.384;8.860;2023-11-22T04:44:53;94862.72;;;3.94;55.85
74921;BME280;63483;47.384;8.860;2023-11-22T04:47:18;94863.41;;;3.96;55.83
74921;BME280;63483;47.384;8.860;2023-11-22T04:49:44;94865.44;;;4.02;55.67
74921;BME280;63483;47.384;8.860;2023-11-22T04:52:09;94866.78;;;3.97;55.92
74921;BME280;63483;47.384;8.860;2023-11-22T04:54:34;94874.34;;;4.10;55.58
74921;BME280;63483;47.384;8.860;2023-11-22T04:57:00;94878.31;;;4.14;55.48
74921;BME280;63483;47.384;8.860;2023-11-22T04:59:25;94868.19;;;4.20;54.93
74921;BME280;63483;47.384;8.860;2023-11-22T05:01:50;94877.50;;;4.23;55.41
74921;BME280;63483;47.384;8.860;2023-11-22T05:04:16;94872.31;;;4.23;55.21
74921;BME280;63483;47.384;8.860;2023-11-22T05:06:41;94870.66;;;4.22;55.20
74921;BME280;63483;47.384;8.860;2023-11-22T05:09:08;94879.41;;;4.21;54.98
74921;BME280;63483;47.384;8.860;2023-11-22T05:11:35;94887.56;;;4.06;55.41
74921;BME280;63483;47.384;8.860;2023-11-22T05:14:00;94887.25;;;4.00;55.15
74921;BME280;63483;47.384;8.860;2023-11-22T05:16:25;94889.97;;;3.98;54.37
74921;BME280;63483;47.384;8.860;2023-11-22T05:18:50;94893.81;;;4.04;54.39
74921;BME280;63483;47.384;8.860;2023-11-22T05:21:16;94901.41;;;3.86;54.19
74921;BME280;63483;47.384;8.860;2023-11-22T05:23:41;94899.50;;;3.88;54.35
74921;BME280;63483;47.384;8.860;2023-11-22T05:26:06;94902.00;;;3.99;54.21
74921;BME280;63483;47.384;8.860;2023-11-22T05:28:33;94902.53;;;3.93;53.87
74921;BME280;63483;47.384;8.860;2023-11-22T05:30:59;94909.94;;;3.67;52.56
74921;BME280;63483;47.384;8.860;2023-11-22T05:33:24;94921.63;;;3.30;51.10
74921;BME280;63483;47.384;8.860;2023-11-22T05:35:49;94926.03;;;2.97;55.45
74921;BME280;63483;47.384;8.860;2023-11-22T05:38:15;94929.00;;;2.93;54.79
74921;BME280;63483;47.384;8.860;2023-11-22T05:40:40;94936.69;;;2.83;53.86
74921;BME280;63483;47.384;8.860;2023-11-22T05:43:07;94939.00;;;2.65;54.13
74921;BME280;63483;47.384;8.860;2023-11-22T05:45:33;94946.72;;;2.44;53.27
74921;BME280;63483;47.384;8.860;2023-11-22T05:47:59;94938.94;;;2.44;54.73
74921;BME280;63483;47.384;8.860;2023-11-22T05:50:25;94945.41;;;2.38;54.15
74921;BME280;63483;47.384;8.860;2023-11-22T05:52:50;94939.59;;;2.25;53.63
74921;BME280;63483;47.384;8.860;2023-11-22T05:55:15;94935.69;;;2.42;52.01
74921;BME280;63483;47.384;8.860;2023-11-22T05:57:43;94933.53;;;2.47;54.03
74921;BME280;63483;47.384;8.860;2023-11-22T06:00:09;94937.53;;;2.40;52.30
74921;BME280;63483;47.384;8.860;2023-11-22T06:02:34;94937.00;;;2.69;54.74
74921;BME280;63483;47.384;8.860;2023-11-22T06:05:01;94938.22;;;2.53;51.48
74921;BME280;63483;47.384;8.860;2023-11-22T06:07:27;94945.59;;;2.58;53.15
74921;BME280;63483;47.384;8.860;2023-11-22T06:09:52;94946.84;;;2.75;55.97
74921;BME280;63483;47.384;8.860;2023-11-22T06:12:17;94946.94;;;2.84;54.94
74921;BME280;63483;47.384;8.860;2023-11-22T06:14:50;94943.47;;;2.95;55.72
74921;BME280;63483;47.384;8.860;2023-11-22T06:17:15;94943.28;;;3.08;55.53
74921;BME280;63483;47.384;8.860;2023-11-22T06:19:40;94948.97;;;3.23;55.61
74921;BME280;63483;47.384;8.860;2023-11-22T06:22:09;94952.09;;;3.27;55.58
74921;BME280;63483;47.384;8.860;2023-11-22T06:24:34;94949.53;;;3.48;55.10
74921;BME280;63483;47.384;8.860;2023-11-22T06:27:01;94949.97;;;3.53;54.75
74921;BME280;63483;47.384;8.860;2023-11-22T06:29:26;94960.72;;;3.48;54.95
74921;BME280;63483;47.384;8.860;2023-11-22T06:31:52;94961.13;;;3.32;55.44
74921;BME280;63483;47.384;8.860;2023-11-22T06:34:17;94964.78;;;3.30;55.47
74921;BME280;63483;47.384;8.860;2023-11-22T06:36:43;94962.31;;;3.40;55.55
74921;BME280;63483;47.384;8.860;2023-11-22T06:39:08;94973.16;;;3.33;55.64
74921;BME280;63483;47.384;8.860;2023-11-22T06:41:34;94975.34;;;3.59;54.99
74921;BME280;63483;47.384;8.860;2023-11-22T06:43:59;94976.47;;;3.66;54.71
74921;BME280;63483;47.384;8.860;2023-11-22T06:46:25;94978.47;;;3.53;54.90
74921;BME280;63483;47.384;8.860;2023-11-22T06:48:50;94983.28;;;3.36;55.20
74921;BME280;63483;47.384;8.860;2023-11-22T06:51:15;94988.44;;;3.36;55.02
74921;BME280;63483;47.384;8.860;2023-11-22T06:53:41;94989.75;;;3.52;54.38
74921;BME280;63483;47.384;8.860;2023-11-22T06:56:06;94981.72;;;3.55;54.53
74921;BME280;63483;47.384;8.860;2023-11-22T06:58:32;94989.22;;;3.48;54.47
74921;BME280;63483;47.384;8.860;2023-11-22T07:00:57;94987.75;;;3.34;54.26
74921;BME280;63483;47.384;8.860;2023-11-22T07:03:22;94991.44;;;3.20;53.00
74921;BME280;63483;47.384;8.860;2023-11-22T07:05:48;95002.81;;;3.08;54.35
74921;BME280;63483;47.384;8.860;2023-11-22T07:08:13;95006.13;;;2.99;54.03
74921;BME280;63483;47.384;8.860;2023-11-22T07:10:41;95005.06;;;3.01;53.94
74921;BME280;63483;47.384;8.860;2023-11-22T07:13:07;95012.72;;;2.92;60.09
74921;BME280;63483;47.384;8.860;2023-11-22T07:15:32;95018.09;;;2.67;56.60
74921;BME280;63483;47.384;8.860;2023-11-22T07:17:57;95018.16;;;2.45;51.40
74921;BME280;63483;47.384;8.860;2023-11-22T07:20:23;95022.91;;;2.17;53.26
74921;BME280;63483;47.384;8.860;2023-11-22T07:22:48;95030.63;;;2.06;56.64
74921;BME280;63483;47.384;8.860;2023-11-22T07:25:20;95029.00;;;2.16;53.65
74921;BME280;63483;47.384;8.860;2023-11-22T07:27:46;95041.00;;;1.94;51.57
74921;BME280;63483;47.384;8.860;2023-11-22T07:30:12;95051.31;;;1.94;53.20
74921;BME280;63483;47.384;8.860;2023-11-22T07:32:38;95053.31;;;1.79;56.43
74921;BME280;63483;47.384;8.860;2023-11-22T07:35:05;95064.69;;;1.77;58.85
74921;BME280;63483;47.384;8.860;2023-11-22T07:37:33;95067.16;;;1.43;59.11
74921;BME280;63483;47.384;8.860;2023-11-22T07:39:59;95067.69;;;1.24;60.78
74921;BME280;63483;47.384;8.860;2023-11-22T07:42:26;95075.00;;;1.77;58.91
74921;BME280;63483;47.384;8.860;2023-11-22T07:44:51;95079.69;;;1.72;59.02
74921;BME280;63483;47.384;8.860;2023-11-22T07:47:21;95083.09;;;1.72;58.29
74921;BME280;63483;47.384;8.860;2023-11-22T07:49:48;95083.22;;;1.11;60.87
74921;BME280;63483;47.384;8.860;2023-11-22T07:52:13;95087.78;;;1.07;60.16
74921;BME280;63483;47.384;8.860;2023-11-22T07:54:39;95083.41;;;1.56;59.48
74921;BME280;63483;47.384;8.860;2023-11-22T07:57:05;95086.44;;;1.26;58.59
74921;BME280;63483;47.384;8.860;2023-11-22T07:59:32;95093.53;;;1.11;59.75
74921;BME280;63483;47.384;8.860;2023-11-22T08:01:57;95088.72;;;1.42;58.85
74921;BME280;63483;47.384;8.860;2023-11-22T08:04:23;95097.38;;;1.54;57.99
74921;BME280;63483;47.384;8.860;2023-11-22T08:06:48;95099.28;;;1.39;59.54
74921;BME280;63483;47.384;8.860;2023-11-22T08:09:14;95119.78;;;1.53;58.99
74921;BME280;63483;47.384;8.860;2023-11-22T08:11:41;95120.53;;;1.18;60.26
74921;BME280;63483;47.384;8.860;2023-11-22T08:14:07;95132.84;;;1.15;59.74
74921;BME280;63483;47.384;8.860;2023-11-22T08:16:33;95138.19;;;0.87;60.40
74921;BME280;63483;47.384;8.860;2023-11-22T08:19:03;95134.22;;;1.07;57.53
74921;BME280;63483;47.384;8.860;2023-11-22T08:21:28;95140.22;;;1.32;56.67
74921;BME280;63483;47.384;8.860;2023-11-22T08:23:54;95141.16;;;1.55;57.45
74921;BME280;63483;47.384;8.860;2023-11-22T08:26:19;95146.31;;;1.55;57.07
74921;BME280;63483;47.384;8.860;2023-11-22T08:28:45;95143.88;;;1.65;57.73
74921;BME280;63483;47.384;8.860;2023-11-22T08:31:10;95152.84;;;1.84;54.49
74921;BME280;63483;47.384;8.860;2023-11-22T08:33:36;95153.19;;;1.79;55.57
74921;BME280;63483;47.384;8.860;2023-11-22T08:36:03;95158.13;;;1.71;55.90
74921;BME280;63483;47.384;8.860;2023-11-22T08:38:30;95155.47;;;1.59;56.85
74921;BME280;63483;47.384;8.860;2023-11-22T08:41:00;95160.09;;;1.43;56.40
74921;BME280;63483;47.384;8.860;2023-11-22T08:43:25;95163.28;;;1.71;56.12
74921;BME280;63483;47.384;8.860;2023-11-22T08:45:51;95156.63;;;1.55;56.68
74921;BME280;63483;47.384;8.860;2023-11-22T08:48:16;95161.78;;;1.55;57.01
74921;BME280;63483;47.384;8.860;2023-11-22T08:50:42;95180.97;;;1.40;57.13
74921;BME280;63483;47.384;8.860;2023-11-22T08:53:09;95168.66;;;1.19;58.29
74921;BME280;63483;47.384;8.860;2023-11-22T08:55:34;95182.16;;;1.71;57.38
74921;BME280;63483;47.384;8.860;2023-11-22T08:57:59;95190.31;;;1.89;56.41
74921;BME280;63483;47.384;8.860;2023-11-22T09:00:25;95188.72;;;2.00;56.63
74921;BME280;63483;47.384;8.860;2023-11-22T09:02:53;95179.81;;;2.04;55.66
74921;BME280;63483;47.384;8.860;2023-11-22T09:05:20;95190.41;;;2.12;55.85
74921;BME280;63483;47.384;8.860;2023-11-22T09:07:46;95187.59;;;2.15;55.99
74921;BME280;63483;47.384;8.860;2023-11-22T09:10:12;95193.00;;;2.12;55.32
74921;BME280;63483;47.384;8.860;2023-11-22T09:12:41;95194.78;;;1.87;55.63
74921;BME280;63483;47.384;8.860;2023-11-22T09:15:08;95199.09;;;2.11;55.16
74921;BME280;63483;47.384;8.860;2023-11-22T09:17:38;95193.88;;;2.00;55.80
74921;BME280;63483;47.384;8.860;2023-11-22T09:20:11;95195.78;;;1.98;55.17
74921;BME280;63483;47.384;8.860;2023-11-22T09:27:45;95208.50;;;2.23;55.34
74921;BME280;63483;47.384;8.860;2023-11-22T09:30:15;95211.13;;;2.46;54.31
74921;BME280;63483;47.384;8.860;2023-11-22T09:32:57;95220.53;;;2.36;54.93
74921;BME280;63483;47.384;8.860;2023-11-22T09:35:22;95220.19;;;1.93;55.79
74921;BME280;63483;47.384;8.860;2023-11-22T09:37:47;95227.34;;;2.01;55.59
74921;BME280;63483;47.384;8.860;2023-11-22T09:40:13;95207.88;;;1.73;56.15
74921;BME280;63483;47.384;8.860;2023-11-22T09:42:43;95215.59;;;1.97;55.14
74921;BME280;63483;47.384;8.860;2023-11-22T09:45:08;95213.66;;;2.12;54.68
74921;BME280;63483;47.384;8.860;2023-11-22T09:47:34;95215.72;;;1.95;54.97
74921;BME280;63483;47.384;8.860;2023-11-22T09:50:01;95217.31;;;1.85;54.68
74921;BME280;63483;47.384;8.860;2023-11-22T09:52:33;95230.69;;;1.79;54.08
74921;BME280;63483;47.384;8.860;2023-11-22T09:55:02;95238.19;;;1.34;55.51
74921;BME280;63483;47.384;8.860;2023-11-22T09:57:30;95226.34;;;1.55;54.31
74921;BME280;63483;47.384;8.860;2023-11-22T09:59:57;95229.63;;;0.83;56.12
74921;BME280;63483;47.384;8.860;2023-11-22T10:02:23;95231.69;;;0.91;56.86
74921;BME280;63483;47.384;8.860;2023-11-22T10:04:53;95226.19;;;0.96;56.64
74921;BME280;63483;47.384;8.860;2023-11-22T10:07:18;95222.41;;;1.25;55.26
74921;BME280;63483;47.384;8.860;2023-11-22T10:09:44;95208.78;;;0.86;56.47
74921;BME280;63483;47.384;8.860;2023-11-22T10:12:12;95211.41;;;0.98;55.96
74921;BME280;63483;47.384;8.860;2023-11-22T10:14:37;95213.94;;;0.86;55.99
74921;BME280;63483;47.384;8.860;2023-11-22T10:17:04;95220.72;;;1.00;56.27
74921;BME280;63483;47.384;8.860;2023-11-22T10:19:30;95215.41;;;0.78;56.04
74921;BME280;63483;47.384;8.860;2023-11-22T10:22:07;95220.25;;;1.19;55.50
74921;BME280;63483;47.384;8.860;2023-11-22T10:24:33;95226.19;;;1.33;55.84
74921;BME280;63483;47.384;8.860;2023-11-22T10:27:00;95226.84;;;1.23;55.80
74921;BME280;63483;47.384;8.860;2023-11-22T10:29:25;95226.63;;;1.26;56.18
74921;BME280;63483;47.384;8.860;2023-11-22T10:31:52;95231.81;;;1.26;55.76
74921;BME280;63483;47.384;8.860;2023-11-22T10:34:21;95236.75;;;1.67;54.87
74921;BME280;63483;47.384;8.860;2023-11-22T10:36:48;95241.88;;;1.42;55.61
74921;BME280;63483;47.384;8.860;2023-11-22T10:39:18;95242.56;;;1.57;54.86
74921;BME280;63483;47.384;8.860;2023-11-22T10:41:45;95229.44;;;1.23;55.59
74921;BME280;63483;47.384;8.860;2023-11-22T10:44:10;95239.16;;;1.57;54.60
74921;BME280;63483;47.384;8.860;2023-11-22T10:46:39;95237.53;;;1.43;54.86
74921;BME280;63483;47.384;8.860;2023-11-22T10:49:05;95235.63;;;1.58;54.35
74921;BME280;63483;47.384;8.860;2023-11-22T10:51:32;95230.72;;;1.42;55.66
74921;BME280;63483;47.384;8.860;2023-11-22T10:54:00;95247.13;;;1.54;54.43
74921;BME280;63483;47.384;8.860;2023-11-22T10:56:26;95241.91;;;1.67;54.81
74921;BME280;63483;47.384;8.860;2023-11-22T10:58:57;95240.75;;;1.71;55.43
74921;BME280;63483;47.384;8.860;2023-11-22T11:01:26;95248.66;;;1.56;55.60
74921;BME280;63483;47.384;8.860;2023-11-22T11:04:11;95242.50;;;1.46;55.58
74921;BME280;63483;47.384;8.860;2023-11-22T11:06:44;95248.47;;;1.47;52.31
74921;BME280;63483;47.384;8.860;2023-11-22T11:09:12;95255.78;;;1.16;53.78
74921;BME280;63483;47.384;8.860;2023-11-22T11:11:40;95254.13;;;1.02;56.27
74921;BME280;63483;47.384;8.860;2023-11-22T11:14:06;95256.59;;;1.16;55.66
74921;BME280;63483;47.384;8.860;2023-11-22T11:16:37;95259.78;;;1.20;56.04
74921;BME280;63483;47.384;8.860;2023-11-22T11:19:04;95268.91;;;1.00;56.12
74921;BME280;63483;47.384;8.860;2023-11-22T11:21:30;95271.91;;;0.81;54.94
74921;BME280;63483;47.384;8.860;2023-11-22T11:23:55;95263.97;;;0.71;51.87
74921;BME280;63483;47.384;8.860;2023-11-22T11:26:28;95263.44;;;0.91;53.93
74921;BME280;63483;47.384;8.860;2023-11-22T11:28:56;95269.66;;;0.76;53.43
74921;BME280;63483;47.384;8.860;2023-11-22T11:31:22;95269.44;;;0.92;52.19
74921;BME280;63483;47.384;8.860;2023-11-22T11:36:21;95275.91;;;0.98;52.79
74921;BME280;63483;47.384;8.860;2023-11-22T11:38:48;95270.44;;;1.02;55.80
74921;BME280;63483;47.384;8.860;2023-11-22T11:41:14;95277.91;;;0.68;54.90
74921;BME280;63483;47.384;8.860;2023-11-22T11:43:47;95278.09;;;0.78;54.59
74921;BME280;63483;47.384;8.860;2023-11-22T11:46:14;95281.69;;;1.01;55.31
74921;BME280;63483;47.384;8.860;2023-11-22T11:48:44;95290.38;;;0.87;53.14
74921;BME280;63483;47.384;8.860;2023-11-22T11:51:13;95282.19;;;1.06;54.58
74921;BME280;63483;47.384;8.860;2023-11-22T11:53:38;95291.28;;;0.99;53.17
74921;BME280;63483;47.384;8.860;2023-11-22T11:56:04;95294.38;;;1.04;53.99
74921;BME280;63483;47.384;8.860;2023-11-22T11:58:30;95295.69;;;1.23;52.16
74921;BME280;63483;47.384;8.860;2023-11-22T12:00:55;95295.59;;;1.24;51.19
74921;BME280;63483;47.384;8.860;2023-11-22T12:03:21;95287.88;;;0.99;52.82
74921;BME280;63483;47.384;8.860;2023-11-22T12:05:48;95284.72;;;0.95;54.34
74921;BME280;63483;47.384;8.860;2023-11-22T12:08:14;95281.16;;;1.09;53.55
74921;BME280;63483;47.384;8.860;2023-11-22T12:10:44;95269.81;;;1.12;54.77
74921;BME280;63483;47.384;8.860;2023-11-22T12:13:20;95275.78;;;1.12;54.49
74921;BME280;63483;47.384;8.860;2023-11-22T12:15:49;95262.44;;;1.44;53.72
74921;BME280;63483;47.384;8.860;2023-11-22T12:18:15;95264.81;;;1.47;54.29
74921;BME280;63483;47.384;8.860;2023-11-22T12:20:41;95255.09;;;1.75;53.14
74921;BME280;63483;47.384;8.860;2023-11-22T12:23:08;95262.69;;;1.65;52.97
74921;BME280;63483;47.384;8.860;2023-11-22T12:25:35;95264.75;;;1.84;52.73
74921;BME280;63483;47.384;8.860;2023-11-22T12:28:00;95264.25;;;1.42;54.36
74921;BME280;63483;47.384;8.860;2023-11-22T12:30:32;95266.72;;;1.19;52.60
74921;BME280;63483;47.384;8.860;2023-11-22T12:33:04;95270.38;;;0.91;53.59
74921;BME280;63483;47.384;8.860;2023-11-22T12:35:30;95266.13;;;0.77;51.23
74921;BME280;63483;47.384;8.860;2023-11-22T12:37:58;95265.00;;;0.55;54.90
74921;BME280;63483;47.384;8.860;2023-11-22T12:40:27;95261.19;;;0.74;50.57
74921;BME280;63483;47.384;8.860;2023-11-22T12:42:53;95259.03;;;0.68;51.43
74921;BME280;63483;47.384;8.860;2023-11-22T12:45:22;95267.88;;;0.89;53.91
74921;BME280;63483;47.384;8.860;2023-11-22T12:47:49;95276.88;;;0.45;54.18
74921;BME280;63483;47.384;8.860;2023-11-22T12:50:41;95288.41;;;0.52;49.60
74921;BME280;63483;47.384;8.860;2023-11-22T12:53:11;95303.16;;;0.50;54.66
74921;BME280;63483;47.384;8.860;2023-11-22T12:55:42;95297.25;;;0.35;56.19
74921;BME280;63483;47.384;8.860;2023-11-22T12:58:08;95296.44;;;0.61;52.94
74921;BME280;63483;47.384;8.860;2023-11-22T13:00:34;95300.81;;;0.73;51.10
74921;BME280;63483;47.384;8.860;2023-11-22T13:02:59;95299.97;;;0.72;51.11
74921;BME280;63483;47.384;8.860;2023-11-22T13:05:25;95314.00;;;0.81;48.57
74921;BME280;63483;47.384;8.860;2023-11-22T13:07:51;95313.19;;;0.81;53.19
74921;BME280;63483;47.384;8.860;2023-11-22T13:10:17;95327.19;;;0.77;52.72
74921;BME280;63483;47.384;8.860;2023-11-22T13:12:43;95320.50;;;0.74;52.51